EDLP 200150Z 28004KT 230V320 6000 BKN006 BKN014 15/14 Q1022 EDLP 200120Z 28005KT 230V310 6000 SCT008 BKN015 BKN026 15/14 Q1021 EDLP 200050Z 26004KT 230V310 8000 SCT009 OVC015 15/14 Q1021 EDLP 200020Z 27005KT 220V350 9999 SCT011 OVC015 16/14 Q1022 EDLP 192350Z 24005KT 220V280 9999 SCT014 BKN029 BKN034 15/13 Q1021 EDLP 192320Z 23005KT 9999 FEW031 BKN035 14/13 Q1021 EDLP 192250Z 22006KT 9999 FEW036 14/12 Q1021 EDLP 192220Z 22006KT CAVOK 14/12 Q1021 EDLP 192150Z 21006KT CAVOK 15/13 Q1021 EDLP 192120Z 21006KT CAVOK 16/13 Q1021 EDLP 192050Z 23007KT CAVOK 15/13 Q1020 EDLP 192020Z 22008KT CAVOK 15/14 Q1020 EDLP 191950Z 21008KT CAVOK 17/14 Q1020 EDLP 191920Z 21007KT CAVOK 17/14 Q1019 EDLP 191850Z 22004KT 190V250 CAVOK 16/15 Q1019 EDLP 191820Z 18005KT CAVOK 17/14 Q1019 EDLP 191750Z 13003KT 080V190 9999 FEW026 16/15 Q1019 EDLP 191720Z 16010KT 9999 -SHRA FEW010TCU 16/15 Q1019 EDLP 191650Z 18004KT 120V210 CAVOK 16/15 Q1019 EDLP 191620Z VRB02KT 9999 FEW010 16/15 Q1020 EDLP 191550Z 24005KT 190V300 9000 -TSRA SCT010CB 16/15 Q1020 RETSRA EDLP 191520Z 25015G35KT 200V290 9999 TSRA BKN040CB 22/12 Q1019 EDLP 191450Z 16006KT 140V200 CAVOK 27/13 Q1017 EDLP 191420Z 12005KT 070V220 CAVOK 27/11 Q1017 EDLP 191350Z 13008KT CAVOK 27/11 Q1017 EDLP 191320Z 14009KT CAVOK 27/11 Q1017 EDLP 191250Z 14009KT CAVOK 26/10 Q1017 EDLP 191220Z 16012KT CAVOK 26/10 Q1017 EDLP 191150Z 16013KT CAVOK 25/09 Q1017 EDLP 191120Z 14008KT 100V170 CAVOK 25/09 Q1018 EDLP 191050Z 11006KT 060V160 CAVOK 26/10 Q1018 EDLP 191020Z 07003KT 350V150 CAVOK 25/11 Q1018 EDLP 190950Z 01004KT 290V070 CAVOK 25/12 Q1019 EDLP 190920Z 19006KT 130V230 CAVOK 25/09 Q1019 EDLP 190850Z 17006KT 130V210 CAVOK 25/08 Q1019 EDLP 190820Z 16012KT CAVOK 24/07 Q1019 EDLP 190750Z 16010KT 130V190 CAVOK 23/08 Q1019 EDLP 190720Z 17008KT 140V200 CAVOK 21/09 Q1019 EDLP 190650Z 18009KT CAVOK 21/08 Q1019 EDLP 190620Z 12003KT 060V220 CAVOK 20/09 Q1019 EDLP 190550Z 11003KT 010V170 CAVOK 19/09 Q1020 EDLP 190520Z 13004KT 080V170 CAVOK 19/10 Q1020 EDLP 190450Z 14006KT CAVOK 19/10 Q1019 EDLP 190420Z 16007KT CAVOK 19/10 Q1019 EDLP 190350Z 15006KT CAVOK 19/10 Q1019 EDLP 190320Z 16005KT CAVOK 20/10 Q1019 EDLP 190250Z 16005KT CAVOK 20/10 Q1019 EDLP 190220Z 15008KT CAVOK 20/10 Q1020 EDLP 190150Z 15007KT CAVOK 20/10 Q1020 EDLP 190120Z 16006KT CAVOK 21/10 Q1020 EDLP 190050Z 16006KT CAVOK 20/11 Q1020 EDLP 190020Z 16007KT CAVOK 20/11 Q1020 EDLP 182350Z 16005KT CAVOK 21/11 Q1020 EDLP 182320Z 16005KT CAVOK 20/11 Q1020 EDLP 182250Z 16004KT CAVOK 21/11 Q1021 EDLP 182220Z 15005KT CAVOK 21/11 Q1020 EDLP 182150Z 16005KT CAVOK 21/11 Q1020 EDLP 182120Z 16004KT CAVOK 21/11 Q1021 EDLP 182050Z 16005KT CAVOK 22/10 Q1021 EDLP 182020Z 15005KT CAVOK 22/10 Q1021 EDLP 181950Z 16004KT CAVOK 22/10 Q1021 EDLP 181920Z 16005KT CAVOK 22/10 Q1021 EDLP 181850Z 13005KT CAVOK 24/10 Q1020 EDLP 181820Z 14005KT CAVOK 24/11 Q1020 EDLP 181750Z 13005KT CAVOK 25/11 Q1021 EDLP 181720Z 12006KT CAVOK 26/11 Q1021 EDLP 181650Z 12007KT CAVOK 26/10 Q1021 EDLP 181620Z VRB06KT CAVOK 26/10 Q1021 EDLP 181550Z 13004KT 100V180 CAVOK 27/10 Q1021 EDLP 181520Z 12006KT 090V160 CAVOK 26/11 Q1021 EDLP 181450Z 14007KT CAVOK 26/10 Q1021 EDLP 181420Z 14008KT 100V170 CAVOK 27/12 Q1021

METAR Messwerte "PADERBORN/LIPPST" EDLP

Zurück zur Übersicht

Ortsname
Ländercode / m ü. NN
Zeit Temperatur Taupunkt Rel.
Luftfeuchte
Luftdruck:
Altimeter
NN
Station
Wind in Beaufort
(Knoten)
Sichtweite
(Meter)
Wolken
(Meter über Grund)
Wettererscheinung
PADERBORN/LIPPST
DE 211
Fr 20.05. 03:50151494 %1022
1022
997
W 2 (4)
SW - NW
6000Stark bewölkt (430)
Stark bewölkt (180)
 
PADERBORN/LIPPST
DE 211
Fr 20.05. 03:20151494 %1021
1021
996
W 2 (5)
SW - NW
6000Stark bewölkt (790)
Stark bewölkt (460)
Wolkig (240)
 
PADERBORN/LIPPST
DE 211
Fr 20.05. 02:50151494 %1021
1021
996
W 2 (4)
SW - NW
8000Bedeckt (460)
Wolkig (270)
 
PADERBORN/LIPPST
DE 211
Fr 20.05. 02:20161488 %1022
1022
997
W 2 (5)
SW - N
>= 10000Bedeckt (460)
Wolkig (340)
 
PADERBORN/LIPPST
DE 211
Fr 20.05. 01:50151388 %1021
1021
996
WSW 2 (5)
SW - W
>= 10000Stark bewölkt (1000)
Stark bewölkt (880)
Wolkig (430)
 
PADERBORN/LIPPST
DE 211
Fr 20.05. 01:20141394 %1021
1021
996
SW 2 (5)>= 10000Stark bewölkt (1100)
Leicht bewölkt (940)
 
PADERBORN/LIPPST
DE 211
Fr 20.05. 00:50141288 %1021
1021
996
SW 2 (6)>= 10000Leicht bewölkt (1100) 
PADERBORN/LIPPST
DE 211
Fr 20.05. 00:20141288 %1021
1021
996
SW 2 (6)>= 10000Nicht signifikant 
PADERBORN/LIPPST
DE 211
Do 19.05. 23:50151388 %1021
1021
996
SSW 2 (6)>= 10000Nicht signifikant 
PADERBORN/LIPPST
DE 211
Do 19.05. 23:20161382 %1021
1021
996
SSW 2 (6)>= 10000Nicht signifikant 
PADERBORN/LIPPST
DE 211
Do 19.05. 22:50151388 %1020
1020
995
SW 3 (7)>= 10000Nicht signifikant 
PADERBORN/LIPPST
DE 211
Do 19.05. 22:20151494 %1020
1020
995
SW 3 (8)>= 10000Nicht signifikant 
PADERBORN/LIPPST
DE 211
Do 19.05. 21:50171482 %1020
1020
995
SSW 3 (8)>= 10000Nicht signifikant 
PADERBORN/LIPPST
DE 211
Do 19.05. 21:20171482 %1019
1019
994
SSW 3 (7)>= 10000Nicht signifikant 
PADERBORN/LIPPST
DE 211
Do 19.05. 20:50161594 %1019
1019
994
SW 2 (4)
S - WSW
>= 10000Nicht signifikant 
PADERBORN/LIPPST
DE 211
Do 19.05. 20:20171482 %1019
1019
994
S 2 (5)>= 10000Nicht signifikant 
PADERBORN/LIPPST
DE 211
Do 19.05. 19:50161594 %1019
1019
994
SO 2 (3)
O - S
>= 10000Leicht bewölkt (790) 
PADERBORN/LIPPST
DE 211
Do 19.05. 19:20161594 %1019
1019
994
SSO 3 (10)>= 10000Leicht bewölkt (300)Regen-Schauer (schwach)
PADERBORN/LIPPST
DE 211
Do 19.05. 18:50161594 %1019
1019
994
S 2 (4)
OSO - SSW
>= 10000Nicht signifikant 
PADERBORN/LIPPST
DE 211
Do 19.05. 18:20161594 %1020
1020
995
Uml 1 (2)>= 10000Leicht bewölkt (300) 
PADERBORN/LIPPST
DE 211
Do 19.05. 17:50161594 %1020
1020
995
WSW 2 (5)
S - WNW
9000Wolkig Cb (300)Gewitter mit Regen (schwach)
PADERBORN/LIPPST
DE 211
Do 19.05. 17:20221253 %1019
1018
994
WSW 4 (15) - 8 (35)
SSW - WNW
>= 10000Stark bewölkt Cb (1200)Gewitter mit Regen
PADERBORN/LIPPST
DE 211
Do 19.05. 16:50271342 %1017
1016
992
SSO 2 (6)
SO - SSW
>= 10000Nicht signifikant 
PADERBORN/LIPPST
DE 211
Do 19.05. 16:20271137 %1017
1016
992
OSO 2 (5)
ONO - SW
>= 10000Nicht signifikant 
PADERBORN/LIPPST
DE 211
Do 19.05. 15:50271137 %1017
1016
992
SO 3 (8)>= 10000Nicht signifikant 
PADERBORN/LIPPST
DE 211
Do 19.05. 15:20271137 %1017
1016
992
SO 3 (9)>= 10000Nicht signifikant 
PADERBORN/LIPPST
DE 211
Do 19.05. 14:50261037 %1017
1016
992
SO 3 (9)>= 10000Nicht signifikant 
PADERBORN/LIPPST
DE 211
Do 19.05. 14:20261037 %1017
1016
992
SSO 4 (12)>= 10000Nicht signifikant 
PADERBORN/LIPPST
DE 211
Do 19.05. 13:5025936 %1017
1016
992
SSO 4 (13)>= 10000Nicht signifikant 
PADERBORN/LIPPST
DE 211
Do 19.05. 13:2025936 %1018
1017
993
SO 3 (8)
O - S
>= 10000Nicht signifikant 
PADERBORN/LIPPST
DE 211
Do 19.05. 12:50261037 %1018
1017
993
OSO 2 (6)
ONO - SSO
>= 10000Nicht signifikant 
PADERBORN/LIPPST
DE 211
Do 19.05. 12:20251141 %1018
1017
993
ONO 2 (3)
N - SSO
>= 10000Nicht signifikant 
PADERBORN/LIPPST
DE 211
Do 19.05. 11:50251244 %1019
1018
994
N 2 (4)
WNW - ONO
>= 10000Nicht signifikant 
PADERBORN/LIPPST
DE 211
Do 19.05. 11:2025936 %1019
1018
994
S 2 (6)
SO - SW
>= 10000Nicht signifikant 
PADERBORN/LIPPST
DE 211
Do 19.05. 10:5025834 %1019
1018
994
S 2 (6)
SO - SSW
>= 10000Nicht signifikant 
PADERBORN/LIPPST
DE 211
Do 19.05. 10:2024734 %1019
1018
994
SSO 4 (12)>= 10000Nicht signifikant 
PADERBORN/LIPPST
DE 211
Do 19.05. 09:5023838 %1019
1018
994
SSO 3 (10)
SO - S
>= 10000Nicht signifikant 
PADERBORN/LIPPST
DE 211
Do 19.05. 09:2021946 %1019
1019
994
S 3 (8)
SO - SSW
>= 10000Nicht signifikant 
PADERBORN/LIPPST
DE 211
Do 19.05. 08:5021843 %1019
1019
994
S 3 (9)>= 10000Nicht signifikant 
PADERBORN/LIPPST
DE 211
Do 19.05. 08:2020949 %1019
1019
994
OSO 2 (3)
ONO - SW
>= 10000Nicht signifikant 
PADERBORN/LIPPST
DE 211
Do 19.05. 07:5019952 %1020
1020
995
OSO 2 (3)
N - S
>= 10000Nicht signifikant 
PADERBORN/LIPPST
DE 211
Do 19.05. 07:20191056 %1020
1020
995
SO 2 (4)
O - S
>= 10000Nicht signifikant 
PADERBORN/LIPPST
DE 211
Do 19.05. 06:50191056 %1019
1019
994
SO 2 (6)>= 10000Nicht signifikant 
PADERBORN/LIPPST
DE 211
Do 19.05. 06:20191056 %1019
1019
994
SSO 3 (7)>= 10000Nicht signifikant 
PADERBORN/LIPPST
DE 211
Do 19.05. 05:50191056 %1019
1019
994
SSO 2 (6)>= 10000Nicht signifikant 
PADERBORN/LIPPST
DE 211
Do 19.05. 05:20201053 %1019
1019
994
SSO 2 (5)>= 10000Nicht signifikant 
PADERBORN/LIPPST
DE 211
Do 19.05. 04:50201053 %1019
1019
994
SSO 2 (5)>= 10000Nicht signifikant 
PADERBORN/LIPPST
DE 211
Do 19.05. 04:20201053 %1020
1020
995
SSO 3 (8)>= 10000Nicht signifikant 
PADERBORN/LIPPST
DE 211
Do 19.05. 03:50201053 %1020
1020
995
SSO 3 (7)>= 10000Nicht signifikant 
PADERBORN/LIPPST
DE 211
Do 19.05. 03:20211049 %1020
1020
995
SSO 2 (6)>= 10000Nicht signifikant 
PADERBORN/LIPPST
DE 211
Do 19.05. 02:50201156 %1020
1020
995
SSO 2 (6)>= 10000Nicht signifikant 
PADERBORN/LIPPST
DE 211
Do 19.05. 02:20201156 %1020
1020
995
SSO 3 (7)>= 10000Nicht signifikant 
PADERBORN/LIPPST
DE 211
Do 19.05. 01:50211153 %1020
1020
995
SSO 2 (5)>= 10000Nicht signifikant 
PADERBORN/LIPPST
DE 211
Do 19.05. 01:20201156 %1020
1020
995
SSO 2 (5)>= 10000Nicht signifikant 
PADERBORN/LIPPST
DE 211
Do 19.05. 00:50211153 %1021
1021
996
SSO 2 (4)>= 10000Nicht signifikant 
PADERBORN/LIPPST
DE 211
Do 19.05. 00:20211153 %1020
1020
995
SSO 2 (5)>= 10000Nicht signifikant 
PADERBORN/LIPPST
DE 211
Mi 18.05. 23:50211153 %1020
1020
995
SSO 2 (5)>= 10000Nicht signifikant 
PADERBORN/LIPPST
DE 211
Mi 18.05. 23:20211153 %1021
1021
996
SSO 2 (4)>= 10000Nicht signifikant 
PADERBORN/LIPPST
DE 211
Mi 18.05. 22:50221046 %1021
1020
996
SSO 2 (5)>= 10000Nicht signifikant 
PADERBORN/LIPPST
DE 211
Mi 18.05. 22:20221046 %1021
1020
996
SSO 2 (5)>= 10000Nicht signifikant 
PADERBORN/LIPPST
DE 211
Mi 18.05. 21:50221046 %1021
1020
996
SSO 2 (4)>= 10000Nicht signifikant 
PADERBORN/LIPPST
DE 211
Mi 18.05. 21:20221046 %1021
1020
996
SSO 2 (5)>= 10000Nicht signifikant 
PADERBORN/LIPPST
DE 211
Mi 18.05. 20:50241041 %1020
1019
995
SO 2 (5)>= 10000Nicht signifikant 
PADERBORN/LIPPST
DE 211
Mi 18.05. 20:20241144 %1020
1019
995
SO 2 (5)>= 10000Nicht signifikant 
PADERBORN/LIPPST
DE 211
Mi 18.05. 19:50251141 %1021
1020
996
SO 2 (5)>= 10000Nicht signifikant 
PADERBORN/LIPPST
DE 211
Mi 18.05. 19:20261139 %1021
1020
996
OSO 2 (6)>= 10000Nicht signifikant 
PADERBORN/LIPPST
DE 211
Mi 18.05. 18:50261037 %1021
1020
996
OSO 3 (7)>= 10000Nicht signifikant 
PADERBORN/LIPPST
DE 211
Mi 18.05. 18:20261037 %1021
1020
996
Uml 2 (6)>= 10000Nicht signifikant 
PADERBORN/LIPPST
DE 211
Mi 18.05. 17:50271034 %1021
1020
996
SO 2 (4)
O - S
>= 10000Nicht signifikant 
PADERBORN/LIPPST
DE 211
Mi 18.05. 17:20261139 %1021
1020
996
OSO 2 (6)
O - SSO
>= 10000Nicht signifikant 
PADERBORN/LIPPST
DE 211
Mi 18.05. 16:50261037 %1021
1020
996
SO 3 (7)>= 10000Nicht signifikant 
PADERBORN/LIPPST
DE 211
Mi 18.05. 16:20271239 %1021
1020
996
SO 3 (8)
O - S
>= 10000Nicht signifikant 

Altimeter: Einstellung am Altimeter (Höhenmesser), die Höhe 0 muss auf diesen Luftdruckwert zeigen, damit das Gerät die Stationshöhe richtig anzeigt.

NN: Luftdruck reduziert auf "Normal Null", auf Meereshöhe, dieser von der Temperatur abhängige Wert wird bisweilen unkorrekt einfach als "Luftdruck" bezeichnet. Eigentlich nur eine fiktive Größe, die es erlaubt, Stationen auf unterschiedlichen Höhen miteinander zu vergleichen.

Station: Realer Luftdruck an der Station.